Time;durP1;ratioP1;P1;durP2;ratioP2;P2;SDS_P1;SDS_P2;PMS_P1;PMS_P2;Temp;Humidity;BMP_temperature;BMP_pressure;BME280_temperature;BME280_humidity;BME280_pressure;Samples;Min_cycle;Max_cycle;Signal;HPM_P1;HPM_P2
2023/09/30 19:50:13;;;;;;;24.18;11.18;;;;;;;22.30;59.55;101813.05;2421729;72;28110;-77
2023/09/30 19:53:16;;;;;;;27.30;11.80;;;;;;;22.27;59.87;101819.67;2365970;74;50067;-77
2023/09/30 19:56:18;;;;;;;24.45;10.82;;;;;;;22.30;59.60;101815.27;2307612;75;50621;-77
2023/09/30 19:59:20;;;;;;;28.50;11.22;;;;;;;22.34;59.41;101816.56;2297121;76;51308;-76
2023/09/30 20:02:22;;;;;;;27.75;11.93;;;;;;;22.39;59.24;101818.21;2312400;76;52247;-77
2023/09/30 20:05:24;;;;;;;26.75;11.40;;;;;;;22.45;58.99;101817.16;2326125;75;50094;-77
2023/09/30 20:08:27;;;;;;;24.27;12.03;;;;;;;22.50;58.90;101822.85;2301106;75;50110;-76
2023/09/30 20:11:29;;;;;;;30.20;12.37;;;;;;;22.54;58.79;101814.23;2326145;75;51480;-75
2023/09/30 20:14:33;;;;;;;22.27;11.63;;;;;;;22.57;58.74;101816.55;2325798;75;50338;-75
2023/09/30 20:17:37;;;;;;;29.27;11.75;;;;;;;22.62;58.55;101820.06;2295318;77;50522;-76
2023/09/30 20:20:39;;;;;;;23.02;11.00;;;;;;;22.64;58.47;101815.85;2308449;76;51502;-76
2023/09/30 20:23:41;;;;;;;27.95;12.00;;;;;;;22.67;58.48;101817.66;2327377;76;50643;-79
2023/09/30 20:26:43;;;;;;;25.97;12.30;;;;;;;22.70;58.38;101815.11;2296544;76;51562;-75
2023/09/30 20:29:46;;;;;;;28.45;12.03;;;;;;;22.70;58.40;101811.89;2298342;75;51420;-76
2023/09/30 20:32:48;;;;;;;28.98;11.80;;;;;;;22.71;58.37;101816.29;2273813;77;50191;-75
2023/09/30 20:35:51;;;;;;;23.42;12.37;;;;;;;22.72;58.32;101810.38;2306845;76;51345;-76
2023/09/30 20:38:54;;;;;;;25.60;12.50;;;;;;;22.72;58.32;101810.38;2326002;75;50619;-82
2023/09/30 20:41:56;;;;;;;29.20;11.65;;;;;;;22.74;58.27;101808.34;2301282;75;50705;-76
2023/09/30 20:44:58;;;;;;;25.62;11.68;;;;;;;22.73;58.36;101810.69;2271153;77;50164;-77
2023/09/30 20:48:02;;;;;;;25.05;11.45;;;;;;;22.74;58.30;101807.83;2272402;77;50577;-77
2023/09/30 20:51:05;;;;;;;30.02;12.50;;;;;;;22.75;58.31;101808.66;2257347;77;51210;-76
2023/09/30 20:54:07;;;;;;;24.52;12.28;;;;;;;22.74;58.31;101803.78;2307748;77;50436;-77
2023/09/30 20:57:10;;;;;;;25.72;11.97;;;;;;;22.75;58.38;101804.09;2318806;75;51468;-76
2023/09/30 21:00:17;;;;;;;23.60;11.28;;;;;;;22.73;58.38;101803.43;2296482;76;52404;-77
2023/09/30 21:03:19;;;;;;;21.12;10.50;;;;;;;22.75;58.35;101803.26;2322769;76;50279;-78
2023/09/30 21:06:22;;;;;;;28.05;11.90;;;;;;;22.74;58.47;101805.64;2322226;76;50357;-78
2023/09/30 21:09:24;;;;;;;29.27;12.23;;;;;;;22.74;58.55;101802.95;2322084;76;50568;-78
2023/09/30 21:12:26;;;;;;;23.40;11.83;;;;;;;22.72;58.60;101804.46;2321856;76;51366;-79
2023/09/30 21:15:28;;;;;;;29.45;12.23;;;;;;;22.73;58.58;101803.43;2321933;76;52432;-80
2023/09/30 21:18:32;;;;;;;23.52;12.10;;;;;;;22.73;58.57;101807.48;2342094;76;50257;-79
2023/09/30 21:21:34;;;;;;;26.05;10.25;;;;;;;22.73;58.59;101799.38;2342053;75;50254;-77
2023/09/30 21:24:39;;;;;;;26.00;11.65;;;;;;;22.74;58.58;101805.64;2341761;76;50290;-77
2023/09/30 21:27:42;;;;;;;20.82;10.80;;;;;;;22.73;58.69;101802.08;2303875;76;50077;-77
2023/09/30 21:30:44;;;;;;;23.55;10.48;;;;;;;22.74;58.72;101808.34;2349004;75;51451;-77
2023/09/30 21:33:46;;;;;;;23.27;11.22;;;;;;;22.73;58.72;101803.95;2321755;76;50231;-77
2023/09/30 21:36:48;;;;;;;24.43;11.18;;;;;;;22.74;58.74;101809.17;2348814;75;50213;-76
2023/09/30 21:39:51;;;;;;;26.87;11.35;;;;;;;22.73;58.78;101806.13;2321955;76;51115;-76
2023/09/30 21:42:53;;;;;;;20.50;10.35;;;;;;;22.73;58.80;101803.43;2321749;76;50513;-75
2023/09/30 21:45:55;;;;;;;18.90;10.68;;;;;;;22.73;58.84;101810.69;2322031;76;51452;-76
2023/09/30 21:48:57;;;;;;;20.82;10.25;;;;;;;22.72;58.88;101804.98;2315687;76;52290;-76
2023/09/30 21:52:00;;;;;;;20.05;9.80;;;;;;;22.72;58.83;101807.16;2306632;76;50131;-76
2023/09/30 21:55:02;;;;;;;20.92;10.28;;;;;;;22.72;58.93;101796.89;2329876;76;51374;-77
2023/09/30 21:58:04;;;;;;;22.48;10.58;;;;;;;22.71;58.97;101793.36;2277229;76;51383;-77
2023/09/30 22:01:07;;;;;;;21.87;9.98;;;;;;;22.71;58.91;101805.98;2292663;76;51423;-76
2023/09/30 22:04:10;;;;;;;17.73;9.98;;;;;;;22.72;58.92;101807.68;2318496;76;22399;-77
2023/09/30 22:07:12;;;;;;;20.52;9.75;;;;;;;22.71;58.97;101801.45;2292708;76;50547;-76
2023/09/30 22:10:15;;;;;;;18.57;9.13;;;;;;;22.72;58.93;101803.11;2292623;76;51353;-76
2023/09/30 22:13:17;;;;;;;25.25;10.88;;;;;;;22.71;58.98;101807.33;2266979;76;51562;-77
2023/09/30 22:16:19;;;;;;;20.40;9.75;;;;;;;22.73;58.95;101807.99;2318492;76;50535;-78
2023/09/30 22:19:22;;;;;;;16.32;9.45;;;;;;;22.72;58.99;101806.33;2267679;76;50902;-77
2023/09/30 22:22:24;;;;;;;15.55;9.18;;;;;;;22.73;58.96;101810.69;2318405;76;50242;-76
2023/09/30 22:25:26;;;;;;;18.87;9.98;;;;;;;22.72;58.97;101802.28;2287423;76;50609;-76
2023/09/30 22:28:29;;;;;;;15.78;9.35;;;;;;;22.72;58.94;101803.11;2290967;77;51100;-75
2023/09/30 22:31:32;;;;;;;17.17;9.40;;;;;;;22.73;58.91;101804.78;2267035;78;51335;-76
2023/09/30 22:34:35;;;;;;;19.25;9.38;;;;;;;22.72;58.95;101799.06;2280036;77;50261;-76
2023/09/30 22:37:37;;;;;;;20.15;9.00;;;;;;;22.72;59.01;101799.06;2242199;78;52382;-76
2023/09/30 22:40:41;;;;;;;21.23;9.78;;;;;;;22.73;59.00;101798.55;2280139;78;51413;-76
2023/09/30 22:43:43;;;;;;;14.23;8.90;;;;;;;22.72;58.99;101803.11;2280199;77;22397;-77
2023/09/30 22:46:46;;;;;;;17.48;9.10;;;;;;;22.73;58.91;101790.45;2267075;78;51457;-77
2023/09/30 22:49:48;;;;;;;17.00;8.45;;;;;;;22.72;59.01;101795.02;2288770;77;50672;-77
2023/09/30 22:52:50;;;;;;;15.03;8.80;;;;;;;22.72;59.04;101799.06;2256716;77;51125;-77
2023/09/30 22:55:53;;;;;;;16.23;8.05;;;;;;;22.72;59.06;101802.28;2322885;75;51324;-77
2023/09/30 22:58:56;;;;;;;16.27;8.45;;;;;;;22.72;59.02;101800.41;2322277;76;50429;-77
2023/09/30 23:01:58;;;;;;;15.45;8.33;;;;;;;22.72;59.04;101799.58;2321835;76;51191;-76
2023/09/30 23:05:04;;;;;;;16.70;7.95;;;;;;;22.72;59.04;101807.16;2321942;76;50175;-77
2023/09/30 23:08:06;;;;;;;15.13;8.80;;;;;;;22.72;59.01;101799.06;2322557;76;51497;-77
2023/09/30 23:11:14;;;;;;;15.78;8.05;;;;;;;22.72;59.10;101793.67;2321985;76;50571;-78
2023/09/30 23:14:16;;;;;;;18.32;9.03;;;;;;;22.71;59.05;101794.70;2341862;75;22283;-77
2023/09/30 23:17:19;;;;;;;13.03;7.60;;;;;;;22.72;59.03;101796.37;2321935;76;50198;-77
2023/09/30 23:20:21;;;;;;;14.60;8.73;;;;;;;22.72;59.07;101788.79;2341880;76;50456;-77
2023/09/30 23:23:25;;;;;;;14.38;8.43;;;;;;;22.72;58.99;101791.48;2341595;76;51564;-77
2023/09/30 23:26:27;;;;;;;14.90;8.45;;;;;;;22.70;59.03;101793.01;2307422;76;51317;-78
2023/09/30 23:29:30;;;;;;;14.33;8.35;;;;;;;22.71;59.07;101792.49;2313461;75;50567;-79
2023/09/30 23:32:32;;;;;;;14.33;7.83;;;;;;;22.70;59.11;101795.70;2302432;77;51318;-79
2023/09/30 23:35:34;;;;;;;15.70;8.70;;;;;;;22.71;59.08;101792.01;2283212;77;51447;-78
2023/09/30 23:38:37;;;;;;;15.13;8.20;;;;;;;22.72;59.04;101795.53;2302512;77;50310;-78
2023/09/30 23:41:48;;;;;;;17.55;7.85;;;;;;;22.70;59.04;101791.66;2283027;77;50944;-75
2023/09/30 23:44:46;;;;;;;16.97;7.85;;;;;;;22.71;59.03;101799.23;2307527;76;21788;-76
2023/09/30 23:47:49;;;;;;;15.43;7.70;;;;;;;22.69;59.04;101801.30;2283383;77;51392;-76
2023/09/30 23:50:53;;;;;;;17.23;8.18;;;;;;;22.69;59.08;101808.05;2303321;77;51164;-77
2023/09/30 23:53:55;;;;;;;14.40;7.03;;;;;;;22.68;59.08;101808.53;2273259;77;51589;-76
2023/09/30 23:56:59;;;;;;;13.10;7.35;;;;;;;22.69;59.07;101803.48;2295487;76;51449;-77
